Portada
METAR-TAF:

METAR-TAF

Aeropuertos :

Aeropuerto Internacional Ignacio Agramonte

Camagüey, Cuba

latitud: 21-25N, longitud: 077-51W, altitud: 122 m

Observación

El informe se hizo hace 48 minutos, a las 03:50 UTC
Viento 3 kt del noreste
Temperatura 24°C
Humedad 83%
Presión 1016 hPa
Visibilidad: 9000 m

METAR: MUCM 240350Z 04003KT 9000 NSC 24/21 Q1016

Hora: 00:38 (04:38 UTC)

Pronóstico

El informe se hizo hace 5 horas y 38 minutos, a las 23:00 UTC
Pronóstico válido del 24 a las 00 UTC al 24 a las 24 UTC
Viento 9 kt del noreste
Visibilidad: 9000 m
Nubes dispersas a una altura de 2000 ft
Evolucionando progresivamente
del 24 a las 01 UTC al 24 a las 02 UTC
Viento 3 kt con dirección variable
Evolucionando progresivamente
del 24 a las 17 UTC al 24 a las 19 UTC
Viento 9 kt del noreste

TAF: MUCM 232300Z 2400/2424 04009KT 9000 SCT020 BECMG 2401/2402 VRB03KT BECMG 2417/2419 04009KT

Observaciones y pronósticos meteorológicos de más de 4000 aeropuertos (mensajes METAR y TAF).

Los puntos amarillos y rojos representan las estaciones disponibles.

Ponga el ratón en el punto deseado para ver el nombre de la estación.

Haga clic para ver las observaciones y los pronósticos meteorológicos.

Para cambiar el mapa : haga clic en los botones verdes con una cruz de color negro para hacer un zoom, en el botón verde con un guión para alejar o en las flechas verdes para mapas adyacentes.


METAR-TAF: